createdAt,value
2023-02-08T00:02:10.988Z,19.45
2023-02-08T00:04:38.441Z,18.45
2023-02-08T00:07:05.897Z,18.67
2023-02-08T00:09:33.456Z,19.02
2023-02-08T00:12:01.041Z,19.13
2023-02-08T00:14:28.563Z,18.92
2023-02-08T00:16:55.944Z,18.92
2023-02-08T00:19:23.462Z,19.27
2023-02-08T00:21:51.007Z,18.73
2023-02-08T00:24:18.452Z,19.70
2023-02-08T00:26:45.813Z,19.08
2023-02-08T00:29:13.293Z,19.15
2023-02-08T00:31:40.728Z,20.17
2023-02-08T00:34:08.232Z,19.10
2023-02-08T00:36:35.665Z,19.13
2023-02-08T00:39:03.225Z,18.95
2023-02-08T00:41:30.669Z,19.90
2023-02-08T00:43:58.258Z,20.45
2023-02-08T00:46:25.861Z,20.13
2023-02-08T00:48:53.283Z,20.02
2023-02-08T00:51:20.793Z,19.25
2023-02-08T00:53:50.313Z,20.63
2023-02-08T00:56:18.098Z,20.50
2023-02-08T00:58:45.572Z,19.17
2023-02-08T01:01:13.764Z,19.73
2023-02-08T01:03:41.936Z,20.73
2023-02-08T01:06:11.317Z,19.73
2023-02-08T01:08:38.790Z,20.15
2023-02-08T01:11:06.256Z,20.63
2023-02-08T01:13:34.148Z,20.48
2023-02-08T01:16:28.087Z,20.10
2023-02-08T01:18:57.646Z,19.73
2023-02-08T01:21:26.346Z,18.90
2023-02-08T01:23:53.796Z,18.40
2023-02-08T01:26:21.761Z,18.95
2023-02-08T01:28:49.650Z,19.65
2023-02-08T01:31:19.107Z,18.58
2023-02-08T01:33:46.831Z,19.60
2023-02-08T01:36:15.183Z,20.15
2023-02-08T01:38:42.690Z,19.23
2023-02-08T01:41:13.722Z,18.98
2023-02-08T01:43:59.810Z,18.80
2023-02-08T01:46:27.464Z,19.20
2023-02-08T01:48:56.688Z,19.63
2023-02-08T01:51:26.353Z,19.50
2023-02-08T01:53:54.543Z,18.92
2023-02-08T01:56:26.343Z,18.83
2023-02-08T01:58:56.266Z,20.35
2023-02-08T02:01:25.746Z,19.95
2023-02-08T02:03:53.494Z,20.83
2023-02-08T02:06:23.410Z,20.33
2023-02-08T02:09:09.771Z,21.02
2023-02-08T02:11:39.231Z,21.48
2023-02-08T02:14:06.775Z,20.30
2023-02-08T02:16:34.212Z,21.80
2023-02-08T02:19:01.769Z,21.90
2023-02-08T02:21:49.973Z,21.83
2023-02-08T02:24:20.251Z,21.60
2023-02-08T02:27:06.653Z,21.48
2023-02-08T02:29:39.952Z,21.67
2023-02-08T02:32:30.672Z,21.27
2023-02-08T02:34:58.267Z,20.17
2023-02-08T02:37:45.970Z,22.50
2023-02-08T02:40:22.814Z,22.10
2023-02-08T02:43:18.128Z,22.98
2023-02-08T02:46:04.840Z,23.27
2023-02-08T02:48:36.732Z,23.13
2023-02-08T02:51:09.755Z,22.33
2023-02-08T02:53:40.276Z,22.40
2023-02-08T02:56:11.009Z,23.35
2023-02-08T02:58:39.050Z,20.92
2023-02-08T03:01:06.548Z,22.65
2023-02-08T03:03:35.009Z,22.75
2023-02-08T03:06:12.289Z,18.20
2023-02-08T03:08:42.826Z,20.10
2023-02-08T03:11:16.893Z,18.08
2023-02-08T03:13:50.368Z,17.05
2023-02-08T03:16:20.357Z,16.15
2023-02-08T03:18:47.870Z,15.27
2023-02-08T03:21:15.227Z,10.98
2023-02-08T03:23:42.672Z,8.90
2023-02-08T03:26:15.203Z,7.95
2023-02-08T03:28:56.837Z,7.80
2023-02-08T03:31:30.298Z,7.45
2023-02-08T03:34:08.364Z,8.50
2023-02-08T03:36:40.796Z,9.35
2023-02-08T03:39:11.754Z,8.57
2023-02-08T03:41:41.101Z,7.53
2023-02-08T03:44:11.804Z,8.35
2023-02-08T03:46:42.942Z,9.32
2023-02-08T03:49:14.557Z,9.60
2023-02-08T03:51:42.397Z,9.05
2023-02-08T03:54:13.187Z,9.05
2023-02-08T03:56:49.553Z,10.07
2023-02-08T03:59:22.807Z,9.18
2023-02-08T04:01:52.525Z,9.10
2023-02-08T04:04:20.268Z,11.18
2023-02-08T04:06:47.662Z,10.18
2023-02-08T04:09:15.144Z,9.77
2023-02-08T04:11:42.691Z,10.05
2023-02-08T04:14:10.182Z,8.77
2023-02-08T04:16:37.643Z,10.23
2023-02-08T04:19:05.060Z,9.90
2023-02-08T04:21:33.351Z,10.52
2023-02-08T04:24:01.142Z,10.75
2023-02-08T04:26:28.600Z,9.80
2023-02-08T04:28:56.002Z,10.30
2023-02-08T04:31:23.516Z,9.80
2023-02-08T04:33:50.997Z,10.23
2023-02-08T04:36:18.574Z,11.10
2023-02-08T04:38:45.931Z,9.77
2023-02-08T04:41:13.348Z,11.45
2023-02-08T04:43:40.762Z,11.10
2023-02-08T04:46:08.408Z,9.45
2023-02-08T04:48:35.835Z,10.25
2023-02-08T04:51:03.322Z,10.35
2023-02-08T04:53:30.766Z,10.02
2023-02-08T04:55:58.400Z,10.20
2023-02-08T04:58:25.904Z,9.23
2023-02-08T05:00:53.366Z,9.68
2023-02-08T05:03:20.799Z,10.80
2023-02-08T05:05:48.376Z,9.63
2023-02-08T05:08:15.797Z,8.38
2023-02-08T05:10:46.259Z,9.65
2023-02-08T05:13:13.728Z,10.30
2023-02-08T05:15:41.141Z,9.40
2023-02-08T05:18:08.623Z,9.32
2023-02-08T05:20:36.028Z,8.60
2023-02-08T05:23:03.668Z,10.00
2023-02-08T05:25:31.054Z,9.48
2023-02-08T05:27:59.832Z,9.95
2023-02-08T05:30:27.279Z,9.57
2023-02-08T05:32:54.766Z,9.75
2023-02-08T05:35:22.230Z,9.20
2023-02-08T05:37:49.709Z,9.30
2023-02-08T05:40:17.204Z,8.82
2023-02-08T05:42:44.752Z,9.65
2023-02-08T05:45:12.243Z,8.82
2023-02-08T05:47:39.728Z,9.23
2023-02-08T05:50:07.273Z,9.55
2023-02-08T05:52:34.688Z,8.30
2023-02-08T05:55:02.136Z,9.63
2023-02-08T05:57:31.337Z,8.70
2023-02-08T05:59:59.501Z,9.60
2023-02-08T06:02:26.914Z,9.63
2023-02-08T06:04:54.334Z,9.00
2023-02-08T06:07:21.750Z,9.68
2023-02-08T06:09:49.212Z,9.70
2023-02-08T06:12:16.592Z,11.48
2023-02-08T06:14:45.039Z,9.70
2023-02-08T06:17:12.514Z,20.10
2023-02-08T06:19:40.020Z,10.30
2023-02-08T06:22:07.458Z,8.35
2023-02-08T06:24:34.936Z,10.45
2023-02-08T06:27:02.466Z,10.23
2023-02-08T06:29:29.980Z,10.07
2023-02-08T06:31:57.495Z,11.35
2023-02-08T06:34:25.012Z,10.48
2023-02-08T06:36:52.876Z,10.13
2023-02-08T06:39:20.384Z,9.23
2023-02-08T06:41:47.822Z,10.38
2023-02-08T06:44:15.232Z,9.50
2023-02-08T06:46:42.666Z,10.75
2023-02-08T06:49:10.112Z,11.20
2023-02-08T06:51:37.561Z,12.85
2023-02-08T06:54:05.003Z,12.57
2023-02-08T06:56:32.537Z,14.50
2023-02-08T06:58:59.945Z,12.07
2023-02-08T07:01:27.513Z,11.40
2023-02-08T07:03:55.147Z,11.65
2023-02-08T07:06:22.799Z,9.90
2023-02-08T07:08:50.291Z,9.93
2023-02-08T07:11:19.900Z,12.00
2023-02-08T07:13:51.108Z,17.73
2023-02-08T07:16:19.986Z,12.10
2023-02-08T07:18:47.787Z,15.38
2023-02-08T07:21:15.234Z,10.95
2023-02-08T07:23:42.663Z,12.52
2023-02-08T07:26:12.091Z,15.65
2023-02-08T07:28:39.634Z,10.05
2023-02-08T07:31:11.179Z,10.60
2023-02-08T07:33:39.116Z,10.38
2023-02-08T07:36:07.669Z,9.43
2023-02-08T07:38:35.358Z,8.85
2023-02-08T07:41:03.517Z,8.90
2023-02-08T07:43:30.996Z,8.25
2023-02-08T07:46:05.592Z,8.48
2023-02-08T07:48:33.207Z,8.48
2023-02-08T07:51:00.612Z,8.52
2023-02-08T07:53:28.086Z,8.23
2023-02-08T07:55:55.540Z,9.88
2023-02-08T07:58:23.072Z,8.95
2023-02-08T08:00:50.578Z,7.93
2023-02-08T08:03:18.330Z,8.40
2023-02-08T08:05:45.827Z,8.45
2023-02-08T09:32:47.858Z,9.05
2023-02-08T09:35:16.168Z,9.45
2023-02-08T09:37:43.622Z,10.10
2023-02-08T09:40:22.855Z,8.10
2023-02-08T09:42:55.872Z,7.72
2023-02-08T09:45:23.283Z,10.35
2023-02-08T09:47:59.020Z,9.75
2023-02-08T09:50:33.939Z,9.00
2023-02-08T09:53:12.360Z,8.55
2023-02-08T09:55:45.140Z,8.10
2023-02-08T09:58:24.104Z,8.25
2023-02-08T10:00:52.378Z,9.75
2023-02-08T10:03:35.223Z,8.98
2023-02-08T10:06:03.822Z,9.55
2023-02-08T10:08:35.477Z,7.88
2023-02-08T10:11:03.085Z,10.10
2023-02-08T10:13:41.331Z,7.68
2023-02-08T10:16:12.008Z,10.10
2023-02-08T10:18:59.697Z,9.35
2023-02-08T10:21:36.349Z,9.15
2023-02-08T10:24:06.845Z,8.18
2023-02-08T10:26:37.451Z,8.60
2023-02-08T10:29:25.920Z,9.45
2023-02-08T10:31:59.675Z,9.45
2023-02-08T10:34:36.605Z,9.57
2023-02-08T10:37:12.151Z,10.90
2023-02-08T10:39:40.250Z,11.85
2023-02-08T10:42:13.665Z,9.52
2023-02-08T10:44:41.197Z,9.57
2023-02-08T10:47:14.094Z,11.68
2023-02-08T10:50:00.165Z,9.85
2023-02-08T10:52:28.069Z,10.75
2023-02-08T10:54:58.537Z,10.32
2023-02-08T10:57:28.909Z,10.30
2023-02-08T11:00:03.570Z,9.95
2023-02-08T11:02:35.770Z,11.13
2023-02-08T11:05:05.288Z,12.00
2023-02-08T11:07:36.067Z,16.10
2023-02-08T11:10:19.134Z,10.82
2023-02-08T11:12:58.352Z,11.38
2023-02-08T11:15:28.416Z,12.93
2023-02-08T11:18:00.862Z,11.63
2023-02-08T11:20:36.804Z,10.82
2023-02-08T11:23:06.017Z,10.45
2023-02-08T11:25:36.043Z,10.18
2023-02-08T11:28:04.230Z,9.73
2023-02-08T11:30:33.546Z,9.90
2023-02-08T11:33:23.287Z,12.13
2023-02-08T11:36:01.660Z,10.88
2023-02-08T11:38:30.133Z,10.50
2023-02-08T11:40:59.481Z,10.73
2023-02-08T11:43:29.642Z,10.60
2023-02-08T11:45:58.419Z,10.20
2023-02-08T11:48:25.971Z,10.63
2023-02-08T11:50:58.567Z,10.65
2023-02-08T11:53:29.045Z,9.93
2023-02-08T11:56:04.409Z,11.13
2023-02-08T12:01:03.544Z,11.00
2023-02-08T12:03:38.357Z,11.15
2023-02-08T12:06:21.082Z,10.98
2023-02-08T12:08:48.531Z,12.20
2023-02-08T12:11:29.834Z,12.75
2023-02-08T12:14:21.437Z,13.60
2023-02-08T12:16:51.788Z,10.93
2023-02-08T12:19:25.549Z,11.77
2023-02-08T12:22:19.258Z,14.13
2023-02-08T12:24:55.845Z,12.75
2023-02-08T12:27:29.391Z,12.95
2023-02-08T12:29:57.683Z,13.40
2023-02-08T12:32:38.553Z,15.82
2023-02-08T12:35:41.471Z,12.43
2023-02-08T12:38:50.310Z,11.60
2023-02-08T12:41:22.827Z,12.70
2023-02-08T12:43:50.441Z,11.90
2023-02-08T12:46:18.119Z,13.55
2023-02-08T12:49:03.784Z,12.45
2023-02-08T12:51:47.482Z,12.02
2023-02-08T12:54:17.426Z,13.10
2023-02-08T12:56:56.902Z,12.18
2023-02-08T12:59:35.752Z,12.60
2023-02-08T13:02:10.506Z,13.55
2023-02-08T13:04:40.603Z,12.95
2023-02-08T13:07:12.796Z,13.40
2023-02-08T13:09:43.008Z,12.43
2023-02-08T13:12:16.101Z,12.10
2023-02-08T13:14:57.695Z,13.88
2023-02-08T13:17:30.670Z,12.40
2023-02-08T13:20:01.404Z,12.23
2023-02-08T13:22:35.289Z,12.45
2023-02-08T13:25:08.574Z,13.60
2023-02-08T13:27:36.886Z,13.70
2023-02-08T13:30:04.808Z,12.80
2023-02-08T13:32:36.761Z,13.50
2023-02-08T13:35:14.415Z,13.18
2023-02-08T13:37:42.803Z,11.85
2023-02-08T13:40:21.619Z,13.43
2023-02-08T13:42:51.028Z,12.93
2023-02-08T13:45:26.009Z,13.43
2023-02-08T13:47:58.058Z,12.98
2023-02-08T13:50:29.349Z,13.05
2023-02-08T13:52:57.173Z,13.05
2023-02-08T13:55:33.872Z,13.27
2023-02-08T13:58:02.659Z,13.55
2023-02-08T14:00:50.144Z,13.30
2023-02-08T14:03:17.694Z,12.82
2023-02-08T14:05:53.335Z,13.27
2023-02-08T14:08:23.562Z,13.00
2023-02-08T14:11:03.176Z,13.40
2023-02-08T14:13:36.802Z,12.57
2023-02-08T14:16:23.192Z,13.57
2023-02-08T14:19:13.744Z,12.77
2023-02-08T14:21:45.765Z,12.73
2023-02-08T14:24:34.466Z,14.52
2023-02-08T14:27:09.473Z,13.75
2023-02-08T14:29:37.832Z,12.80
2023-02-08T14:32:05.740Z,12.85
2023-02-08T14:34:37.840Z,13.20
2023-02-08T14:37:11.273Z,13.48
2023-02-08T14:39:38.836Z,12.35
2023-02-08T14:42:08.843Z,12.52
2023-02-08T14:44:39.634Z,13.48
2023-02-08T14:47:16.504Z,14.02
2023-02-08T14:49:45.548Z,12.98
2023-02-08T14:52:16.549Z,13.80
2023-02-08T14:54:47.869Z,13.80
2023-02-08T14:57:25.285Z,13.52
2023-02-08T14:59:54.167Z,14.00
2023-02-08T15:02:23.450Z,13.70
2023-02-08T15:04:50.935Z,14.98
2023-02-08T15:07:37.136Z,14.15
2023-02-08T15:10:05.399Z,15.63
2023-02-08T15:12:38.181Z,13.05
2023-02-08T15:15:06.556Z,13.45
2023-02-08T15:17:42.237Z,13.90
2023-02-08T15:20:17.214Z,14.13
2023-02-08T15:22:44.747Z,13.68
2023-02-08T15:25:22.714Z,14.35
2023-02-08T15:27:51.806Z,14.60
2023-02-08T15:30:24.245Z,13.23
2023-02-08T15:32:51.886Z,13.30
2023-02-08T15:35:26.359Z,13.10
2023-02-08T15:37:54.706Z,14.03
2023-02-08T15:40:26.694Z,13.52
2023-02-08T15:42:54.306Z,11.70
2023-02-08T15:45:31.833Z,12.10
2023-02-08T15:47:59.729Z,11.88
2023-02-08T15:50:27.827Z,13.70
2023-02-08T15:53:02.600Z,13.40
2023-02-08T15:55:32.967Z,13.70
2023-02-08T15:58:03.562Z,13.25
2023-02-08T16:00:36.408Z,13.98
2023-02-08T16:03:08.554Z,14.23
2023-02-08T16:05:36.671Z,15.05
2023-02-08T16:08:04.752Z,15.70
2023-02-08T16:10:36.838Z,15.20
2023-02-08T16:13:06.376Z,15.32
2023-02-08T16:15:45.297Z,16.45
2023-02-08T16:18:35.835Z,16.42
2023-02-08T16:21:04.679Z,16.25
2023-02-08T16:23:33.509Z,18.00
2023-02-08T16:26:19.778Z,18.67
2023-02-08T16:28:52.943Z,18.00
2023-02-08T16:31:21.655Z,18.08
2023-02-08T16:33:57.215Z,18.05
2023-02-08T16:36:26.964Z,18.13
2023-02-08T16:39:13.265Z,17.52
2023-02-08T16:42:13.673Z,17.48
2023-02-08T16:44:57.880Z,16.92
2023-02-08T16:47:27.852Z,17.58
2023-02-08T16:49:55.249Z,16.80
2023-02-08T16:52:22.734Z,17.58
2023-02-08T16:54:50.297Z,19.60
2023-02-08T16:57:17.874Z,20.65
2023-02-08T16:59:45.269Z,19.98
2023-02-08T17:02:13.148Z,19.58
2023-02-08T17:04:40.906Z,18.95
2023-02-08T17:07:15.927Z,18.33
2023-02-08T17:09:43.417Z,18.20
2023-02-08T17:12:21.825Z,16.52
2023-02-08T17:14:50.221Z,18.13
2023-02-08T17:17:17.668Z,16.52
2023-02-08T17:19:46.988Z,18.60
2023-02-08T17:22:14.473Z,21.38
2023-02-08T17:24:41.896Z,35.22
2023-02-08T17:27:12.539Z,37.13
2023-02-08T17:29:40.248Z,37.38
2023-02-08T17:32:08.030Z,37.90
2023-02-08T17:34:36.844Z,49.95
2023-02-08T17:37:06.784Z,37.75
2023-02-08T17:39:34.276Z,52.30
2023-02-08T17:42:01.684Z,47.05
2023-02-08T17:44:29.425Z,46.08
2023-02-08T17:46:56.795Z,50.97
2023-02-08T17:49:24.345Z,46.30
2023-02-08T17:51:51.790Z,46.15
2023-02-08T17:54:21.013Z,44.28
2023-02-08T17:56:48.522Z,46.40
2023-02-08T17:59:15.913Z,46.90
2023-02-08T18:01:45.565Z,45.45
2023-02-08T18:04:13.375Z,56.92
2023-02-08T18:06:40.832Z,57.50
2023-02-08T18:09:08.226Z,59.50
2023-02-08T18:11:35.705Z,61.63
2023-02-08T18:14:03.125Z,59.45
2023-02-08T18:16:30.919Z,57.03
2023-02-08T18:19:01.236Z,53.95
2023-02-08T18:21:33.004Z,49.35
2023-02-08T18:24:04.813Z,49.28
2023-02-08T18:26:34.592Z,48.80
2023-02-08T18:29:05.212Z,47.42
2023-02-08T18:31:33.199Z,47.28
2023-02-08T18:34:01.584Z,45.20
2023-02-08T18:36:29.073Z,42.63
2023-02-08T18:38:57.227Z,42.40
2023-02-08T18:41:26.778Z,54.10
2023-02-08T18:43:55.477Z,45.08
2023-02-08T18:46:23.770Z,38.97
2023-02-08T18:48:52.707Z,44.60
2023-02-08T18:51:20.785Z,42.88
2023-02-08T18:53:50.966Z,34.15
2023-02-08T18:56:21.532Z,34.17
2023-02-08T18:58:49.219Z,34.40
2023-02-08T19:01:18.345Z,37.10
2023-02-08T19:03:46.176Z,33.00
2023-02-08T19:06:18.332Z,40.25
2023-02-08T19:08:46.453Z,44.58
2023-02-08T19:11:18.585Z,49.42
2023-02-08T19:13:46.049Z,49.38
2023-02-08T19:16:13.953Z,47.47
2023-02-08T19:18:41.413Z,50.97
2023-02-08T19:21:12.743Z,54.28
2023-02-08T19:23:40.218Z,62.35
2023-02-08T19:26:15.384Z,56.78
2023-02-08T19:28:42.852Z,56.40
2023-02-08T19:31:12.125Z,55.83
2023-02-08T19:33:40.752Z,57.70
2023-02-08T19:36:09.148Z,56.33
2023-02-08T19:38:37.102Z,56.58
2023-02-08T19:41:05.662Z,57.38
2023-02-08T19:43:33.247Z,51.60
2023-02-08T19:46:01.283Z,54.97
2023-02-08T19:48:28.796Z,52.40
2023-02-08T19:50:57.660Z,54.63
2023-02-08T19:53:25.871Z,56.70
2023-02-08T19:55:57.121Z,57.00
2023-02-08T19:58:24.789Z,54.90
2023-02-08T20:00:55.176Z,54.75
2023-02-08T20:03:22.933Z,33.63
2023-02-08T20:05:51.181Z,23.83
2023-02-08T20:08:18.682Z,22.73
2023-02-08T20:10:48.085Z,17.85
2023-02-08T20:13:15.741Z,21.27
2023-02-08T20:15:44.104Z,20.35
2023-02-08T20:18:12.716Z,20.73
2023-02-08T20:20:40.457Z,19.75
2023-02-08T20:23:21.773Z,20.63
2023-02-08T20:25:50.099Z,21.20
2023-02-08T20:28:17.446Z,21.17
2023-02-08T20:30:44.976Z,20.38
2023-02-08T20:33:13.716Z,20.42
2023-02-08T20:35:43.204Z,19.40
2023-02-08T20:38:10.749Z,20.08
2023-02-08T20:40:38.152Z,27.25
2023-02-08T20:43:05.616Z,32.47
2023-02-08T20:45:33.091Z,35.85
2023-02-08T20:48:00.526Z,36.20
2023-02-08T20:50:30.869Z,31.92
2023-02-08T20:52:58.325Z,26.33
2023-02-08T20:55:25.822Z,28.27
2023-02-08T20:57:53.249Z,27.02
2023-02-08T21:00:24.196Z,29.48
2023-02-08T21:02:53.408Z,29.92
2023-02-08T21:05:20.821Z,29.90
2023-02-08T21:07:48.311Z,30.98
2023-02-08T21:10:15.987Z,30.63
2023-02-08T21:12:43.439Z,33.85
2023-02-08T21:15:11.162Z,35.50
2023-02-08T21:17:40.832Z,38.80
2023-02-08T21:20:08.880Z,42.90
2023-02-08T21:22:36.298Z,36.67
2023-02-08T21:25:03.781Z,37.03
2023-02-08T21:27:31.166Z,37.92
2023-02-08T21:29:58.626Z,36.63
2023-02-08T21:32:26.023Z,36.30
2023-02-08T21:34:53.486Z,35.72
2023-02-08T21:37:20.869Z,32.60
2023-02-08T21:39:48.360Z,34.45
2023-02-08T21:42:15.996Z,36.33
2023-02-08T21:44:43.524Z,35.78
2023-02-08T21:47:10.917Z,34.33
2023-02-08T21:49:56.754Z,35.03
2023-02-08T21:52:42.803Z,36.10
2023-02-08T21:55:10.267Z,36.17
2023-02-08T21:57:40.993Z,25.63
2023-02-08T22:00:10.351Z,25.17
2023-02-08T22:02:40.725Z,31.70
2023-02-08T22:05:27.077Z,40.50
2023-02-08T22:07:55.308Z,35.80
2023-02-08T22:10:24.795Z,35.58
2023-02-08T22:12:55.283Z,29.77
2023-02-08T22:15:24.312Z,32.95
2023-02-08T22:17:58.768Z,29.30
2023-02-08T22:20:26.339Z,23.73
2023-02-08T22:22:55.293Z,27.63
2023-02-08T22:25:23.697Z,26.10
2023-02-08T22:27:51.210Z,29.98
2023-02-08T22:30:19.390Z,34.22
2023-02-08T22:32:48.276Z,41.90
2023-02-08T22:35:16.553Z,45.92
2023-02-08T22:37:43.970Z,42.13
2023-02-08T22:40:12.634Z,43.33
2023-02-08T22:42:40.861Z,43.47
2023-02-08T22:45:08.626Z,42.20
2023-02-08T22:47:36.106Z,41.00
2023-02-08T22:50:03.681Z,42.95
2023-02-08T22:52:34.297Z,39.70
2023-02-08T22:55:03.743Z,38.42
2023-02-08T22:57:32.192Z,37.80
2023-02-08T22:59:59.603Z,37.97
2023-02-08T23:02:27.159Z,37.60
2023-02-08T23:04:54.672Z,37.95
2023-02-08T23:07:22.398Z,41.67
2023-02-08T23:09:50.048Z,41.90
2023-02-08T23:12:17.561Z,49.67
2023-02-08T23:14:44.989Z,49.65
2023-02-08T23:17:12.478Z,49.97
2023-02-08T23:19:41.170Z,49.88
2023-02-08T23:22:08.595Z,46.95
2023-02-08T23:24:36.138Z,43.80
2023-02-08T23:27:03.517Z,36.15
2023-02-08T23:29:31.046Z,41.38
2023-02-08T23:31:58.539Z,41.35
2023-02-08T23:34:26.053Z,40.90
2023-02-08T23:36:53.443Z,42.30
2023-02-08T23:39:20.851Z,40.33
2023-02-08T23:41:48.345Z,40.03
2023-02-08T23:44:15.731Z,35.65
2023-02-08T23:46:43.308Z,27.77
2023-02-08T23:49:10.825Z,21.67
2023-02-08T23:51:38.389Z,19.90
2023-02-08T23:54:06.006Z,21.63
2023-02-08T23:56:33.546Z,22.77
2023-02-08T23:59:00.996Z,22.17
